sensor_id;sensor_type;location;lat;lon;timestamp;pressure;altitude;pressure_sealevel;temperature;humidity
75420;BME280;63998;52.488;13.428;2024-03-08T18:36:27;101372.91;;;7.55;45.07
75420;BME280;63998;52.488;13.428;2024-03-08T18:46:37;101376.59;;;7.64;45.48
75420;BME280;63998;52.488;13.428;2024-03-08T18:52:51;101371.53;;;7.70;45.46
75420;BME280;63998;52.488;13.428;2024-03-08T19:12:42;101358.22;;;7.53;46.21
75420;BME280;63998;52.488;13.428;2024-03-08T19:22:01;101358.72;;;7.38;45.06
75420;BME280;63998;52.488;13.428;2024-03-08T19:28:14;101353.78;;;7.47;47.13
75420;BME280;63998;52.488;13.428;2024-03-08T19:31:20;101352.03;;;7.46;46.46
75420;BME280;63998;52.488;13.428;2024-03-08T19:53:54;101352.94;;;7.14;47.44
75420;BME280;63998;52.488;13.428;2024-03-08T19:56:35;101357.78;;;7.02;47.73
75420;BME280;63998;52.488;13.428;2024-03-08T19:59:24;101358.53;;;6.98;47.43
75420;BME280;63998;52.488;13.428;2024-03-08T20:05:05;101357.97;;;7.09;48.76
75420;BME280;63998;52.488;13.428;2024-03-08T20:10:58;101352.69;;;7.05;48.02
75420;BME280;63998;52.488;13.428;2024-03-08T20:13:54;101342.44;;;7.08;48.95
75420;BME280;63998;52.488;13.428;2024-03-08T20:16:45;101347.06;;;6.87;48.15
75420;BME280;63998;52.488;13.428;2024-03-08T20:19:22;101338.09;;;6.74;49.18
75420;BME280;63998;52.488;13.428;2024-03-08T20:25:20;101331.66;;;6.90;50.37
75420;BME280;63998;52.488;13.428;2024-03-08T20:28:11;101328.06;;;6.84;49.99
75420;BME280;63998;52.488;13.428;2024-03-08T20:30:59;101323.06;;;6.91;49.96
75420;BME280;63998;52.488;13.428;2024-03-08T20:33:47;101327.41;;;6.93;50.21
75420;BME280;63998;52.488;13.428;2024-03-08T20:36:24;101330.41;;;6.75;49.96
75420;BME280;63998;52.488;13.428;2024-03-08T20:38:59;101322.19;;;6.59;50.35
75420;BME280;63998;52.488;13.428;2024-03-08T20:41:42;101325.81;;;6.65;50.51
75420;BME280;63998;52.488;13.428;2024-03-08T20:44:10;101337.47;;;6.51;51.03
75420;BME280;63998;52.488;13.428;2024-03-08T20:46:52;101322.16;;;6.57;50.81
75420;BME280;63998;52.488;13.428;2024-03-08T20:49:33;101322.88;;;6.22;51.71
75420;BME280;63998;52.488;13.428;2024-03-08T20:52:16;101327.69;;;6.39;52.59
75420;BME280;63998;52.488;13.428;2024-03-08T20:55:12;101322.53;;;6.39;51.70
75420;BME280;63998;52.488;13.428;2024-03-08T20:58:18;101315.78;;;6.15;52.37
75420;BME280;63998;52.488;13.428;2024-03-08T21:00:50;101313.38;;;6.21;53.18
75420;BME280;63998;52.488;13.428;2024-03-08T21:03:39;101311.38;;;6.10;52.69
75420;BME280;63998;52.488;13.428;2024-03-08T21:09:33;101306.34;;;6.15;53.03
75420;BME280;63998;52.488;13.428;2024-03-08T21:15:00;101301.91;;;5.83;54.28
75420;BME280;63998;52.488;13.428;2024-03-08T21:17:29;101303.19;;;5.95;54.46
75420;BME280;63998;52.488;13.428;2024-03-08T21:19:54;101309.25;;;5.97;54.45
75420;BME280;63998;52.488;13.428;2024-03-08T21:22:21;101289.16;;;5.87;54.38
75420;BME280;63998;52.488;13.428;2024-03-08T21:24:47;101296.09;;;5.88;55.13
75420;BME280;63998;52.488;13.428;2024-03-08T21:27:12;101285.13;;;5.67;55.29
75420;BME280;63998;52.488;13.428;2024-03-08T21:29:38;101294.56;;;5.66;55.35
75420;BME280;63998;52.488;13.428;2024-03-08T21:32:04;101285.28;;;5.73;55.29
75420;BME280;63998;52.488;13.428;2024-03-08T21:34:30;101285.75;;;5.60;55.70
75420;BME280;63998;52.488;13.428;2024-03-08T21:36:57;101280.25;;;5.76;56.42
75420;BME280;63998;52.488;13.428;2024-03-08T21:39:22;101282.50;;;5.92;56.62
75420;BME280;63998;52.488;13.428;2024-03-08T21:41:53;101278.19;;;5.93;56.29
75420;BME280;63998;52.488;13.428;2024-03-08T21:44:19;101278.59;;;5.78;56.22
75420;BME280;63998;52.488;13.428;2024-03-08T21:46:44;101270.97;;;5.83;56.48
75420;BME280;63998;52.488;13.428;2024-03-08T21:49:11;101269.94;;;5.76;56.63
75420;BME280;63998;52.488;13.428;2024-03-08T21:51:36;101260.44;;;5.47;57.19
75420;BME280;63998;52.488;13.428;2024-03-08T21:54:14;101265.78;;;5.53;57.38
75420;BME280;63998;52.488;13.428;2024-03-08T21:56:39;101258.34;;;5.35;58.05
75420;BME280;63998;52.488;13.428;2024-03-08T21:59:04;101263.75;;;5.43;57.55
75420;BME280;63998;52.488;13.428;2024-03-08T22:01:30;101258.69;;;5.46;58.12
75420;BME280;63998;52.488;13.428;2024-03-08T22:03:57;101256.16;;;5.20;59.13
75420;BME280;63998;52.488;13.428;2024-03-08T22:06:23;101251.94;;;5.22;59.31
75420;BME280;63998;52.488;13.428;2024-03-08T22:08:50;101253.78;;;5.26;59.45
75420;BME280;63998;52.488;13.428;2024-03-08T22:11:15;101248.38;;;5.46;59.49
75420;BME280;63998;52.488;13.428;2024-03-08T22:13:40;101261.84;;;5.37;59.06
75420;BME280;63998;52.488;13.428;2024-03-08T22:16:07;101242.66;;;5.27;59.87
75420;BME280;63998;52.488;13.428;2024-03-08T22:18:34;101245.38;;;5.32;60.31
75420;BME280;63998;52.488;13.428;2024-03-08T22:21:02;101247.63;;;5.21;59.83
75420;BME280;63998;52.488;13.428;2024-03-08T22:23:28;101243.31;;;4.95;61.23
75420;BME280;63998;52.488;13.428;2024-03-08T22:25:53;101238.38;;;5.01;61.10
75420;BME280;63998;52.488;13.428;2024-03-08T22:28:18;101244.13;;;4.92;62.04
75420;BME280;63998;52.488;13.428;2024-03-08T22:30:51;101236.53;;;4.97;61.97
75420;BME280;63998;52.488;13.428;2024-03-08T22:33:16;101229.94;;;5.05;62.34
75420;BME280;63998;52.488;13.428;2024-03-08T22:35:41;101243.66;;;5.04;62.43
75420;BME280;63998;52.488;13.428;2024-03-08T22:38:07;101243.25;;;4.92;62.55
75420;BME280;63998;52.488;13.428;2024-03-08T22:40:34;101230.56;;;4.98;62.61
75420;BME280;63998;52.488;13.428;2024-03-08T22:42:59;101229.56;;;4.93;63.25
75420;BME280;63998;52.488;13.428;2024-03-08T22:45:25;101233.13;;;4.98;63.55
75420;BME280;63998;52.488;13.428;2024-03-08T22:47:52;101228.34;;;4.83;63.36
75420;BME280;63998;52.488;13.428;2024-03-08T22:50:18;101228.41;;;4.85;63.80
75420;BME280;63998;52.488;13.428;2024-03-08T22:52:44;101226.38;;;4.75;64.57
75420;BME280;63998;52.488;13.428;2024-03-08T22:55:10;101213.50;;;4.75;64.97
75420;BME280;63998;52.488;13.428;2024-03-08T22:57:37;101215.13;;;4.73;65.75
75420;BME280;63998;52.488;13.428;2024-03-08T23:00:07;101210.22;;;4.79;65.23
75420;BME280;63998;52.488;13.428;2024-03-08T23:02:52;101217.19;;;4.56;65.75
75420;BME280;63998;52.488;13.428;2024-03-08T23:05:18;101210.34;;;4.56;66.50
75420;BME280;63998;52.488;13.428;2024-03-08T23:07:44;101213.63;;;4.52;67.34
75420;BME280;63998;52.488;13.428;2024-03-08T23:10:11;101208.34;;;4.24;68.17
75420;BME280;63998;52.488;13.428;2024-03-08T23:12:38;101212.06;;;4.32;68.17
75420;BME280;63998;52.488;13.428;2024-03-08T23:15:05;101208.13;;;4.18;68.66
75420;BME280;63998;52.488;13.428;2024-03-08T23:17:45;101210.41;;;4.10;69.69
75420;BME280;63998;52.488;13.428;2024-03-08T23:20:14;101201.34;;;4.20;69.36
75420;BME280;63998;52.488;13.428;2024-03-08T23:22:45;101195.31;;;4.43;69.48
75420;BME280;63998;52.488;13.428;2024-03-08T23:25:18;101198.47;;;4.36;68.82
75420;BME280;63998;52.488;13.428;2024-03-08T23:27:55;101201.56;;;4.26;69.60
75420;BME280;63998;52.488;13.428;2024-03-08T23:30:22;101188.06;;;4.33;69.47
75420;BME280;63998;52.488;13.428;2024-03-08T23:32:49;101190.25;;;4.46;70.20
75420;BME280;63998;52.488;13.428;2024-03-08T23:35:14;101189.75;;;4.31;69.83
75420;BME280;63998;52.488;13.428;2024-03-08T23:37:40;101178.25;;;4.21;69.82
75420;BME280;63998;52.488;13.428;2024-03-08T23:40:13;101191.56;;;4.10;70.22
75420;BME280;63998;52.488;13.428;2024-03-08T23:42:42;101185.47;;;4.31;70.78
75420;BME280;63998;52.488;13.428;2024-03-08T23:45:09;101188.00;;;4.30;70.19
75420;BME280;63998;52.488;13.428;2024-03-08T23:47:44;101188.06;;;4.31;70.24
75420;BME280;63998;52.488;13.428;2024-03-08T23:50:11;101179.34;;;4.28;70.12
75420;BME280;63998;52.488;13.428;2024-03-08T23:52:40;101182.44;;;4.43;70.42
75420;BME280;63998;52.488;13.428;2024-03-08T23:55:05;101181.09;;;4.54;70.60
75420;BME280;63998;52.488;13.428;2024-03-08T23:57:34;101179.41;;;4.55;69.62
